sim
Sign-in with your pilot id or email,
or register
Callsign
Passwort

Schedule Details

Flight Number: DLH112 (2)
Departure: Frankfurt Airport (EDDF) at 15:15
Arrival: Munich Airport (EDDM) at 16:10
Route: Lufthansa Passenger Schedule. Enter filed route here before submitting Pirep.

Weather Information
Getting current METAR information for EDDF 210620Z 08005KT CAVOK 13/06 Q1016 NOSIG
Getting current METAR information for EDDM 210620Z 00000KT CAVOK 09/09 Q1017 BECMG 09005KT

Schedule Frequency

Route Map